createdAt,value
2019-05-19T00:00:33.635Z,100501.69
2019-05-19T00:03:04.396Z,100498.66
2019-05-19T00:05:35.742Z,100498.42
2019-05-19T00:08:07.580Z,100494.53
2019-05-19T00:10:39.235Z,100496.57
2019-05-19T00:13:11.087Z,100495.59
2019-05-19T00:15:42.769Z,100488.78
2019-05-19T00:18:14.559Z,100492.56
2019-05-19T00:20:46.177Z,100487.38
2019-05-19T00:23:17.836Z,100494.30
2019-05-19T00:25:49.495Z,100491.36
2019-05-19T00:28:21.363Z,100489.23
2019-05-19T00:30:53.045Z,100493.85
2019-05-19T00:33:24.988Z,100503.92
2019-05-19T00:35:57.565Z,100508.64
2019-05-19T00:38:29.383Z,100497.16
2019-05-19T00:41:01.174Z,100495.95
2019-05-19T00:43:33.042Z,100494.92
2019-05-19T00:46:04.838Z,100497.02
2019-05-19T00:48:36.862Z,100495.38
2019-05-19T00:51:08.944Z,100485.62
2019-05-19T00:53:40.357Z,100490.75
2019-05-19T00:56:12.288Z,100493.12
2019-05-19T00:58:44.580Z,100504.41
2019-05-19T01:01:17.845Z,100505.52
2019-05-19T01:03:49.784Z,100504.73
2019-05-19T01:06:21.250Z,100504.81
2019-05-19T01:08:52.771Z,100502.88
2019-05-19T01:11:24.439Z,100506.16
2019-05-19T01:13:55.836Z,100505.16
2019-05-19T01:16:27.288Z,100502.77
2019-05-19T01:18:59.073Z,100499.95
2019-05-19T01:21:32.054Z,100500.84
2019-05-19T01:24:03.635Z,100503.41
2019-05-19T01:26:35.084Z,100509.01
2019-05-19T01:29:07.868Z,100512.16
2019-05-19T01:31:39.358Z,100524.27
2019-05-19T01:34:11.044Z,100527.98
2019-05-19T01:36:42.944Z,100532.40
2019-05-19T01:39:14.596Z,100526.16
2019-05-19T01:41:46.176Z,100523.47
2019-05-19T01:44:17.803Z,100528.52
2019-05-19T01:46:49.477Z,100530.54
2019-05-19T01:49:21.226Z,100531.39
2019-05-19T01:51:52.866Z,100536.66
2019-05-19T01:54:24.545Z,100546.55
2019-05-19T01:56:55.993Z,100547.77
2019-05-19T01:59:27.546Z,100547.34
2019-05-19T02:02:00.234Z,100550.97
2019-05-19T02:04:31.886Z,100546.85
2019-05-19T02:07:03.337Z,100540.87
2019-05-19T02:09:35.015Z,100535.85
2019-05-19T02:12:06.341Z,100538.37
2019-05-19T02:14:37.884Z,100541.03
2019-05-19T02:17:09.762Z,100544.53
2019-05-19T02:19:41.537Z,100547.30
2019-05-19T02:22:13.278Z,100541.20
2019-05-19T02:24:45.239Z,100535.81
2019-05-19T02:27:16.864Z,100541.16
2019-05-19T02:29:48.587Z,100555.91
2019-05-19T02:32:20.125Z,100552.53
2019-05-19T02:34:51.328Z,100540.52
2019-05-19T02:37:23.040Z,100552.83
2019-05-19T02:39:54.673Z,100556.33
2019-05-19T02:42:28.539Z,100559.48
2019-05-19T02:45:02.050Z,100552.98
2019-05-19T02:47:35.464Z,100555.34
2019-05-19T02:50:08.020Z,100551.38
2019-05-19T02:52:41.113Z,100552.08
2019-05-19T02:55:12.809Z,100556.63
2019-05-19T02:57:44.499Z,100550.86
2019-05-19T03:00:17.140Z,100550.20
2019-05-19T03:02:49.452Z,100548.17
2019-05-19T03:05:22.401Z,100562.94
2019-05-19T03:07:53.883Z,100563.59
2019-05-19T03:10:25.512Z,100568.92
2019-05-19T03:12:57.187Z,100576.42
2019-05-19T03:15:29.355Z,100577.08
2019-05-19T03:18:00.722Z,100572.84
2019-05-19T03:20:32.241Z,100571.80
2019-05-19T03:23:03.810Z,100577.14
2019-05-19T03:25:35.453Z,100578.56
2019-05-19T03:28:06.915Z,100572.37
2019-05-19T03:30:43.142Z,100581.12
2019-05-19T03:33:22.037Z,100581.07
2019-05-19T03:35:53.512Z,100579.51
2019-05-19T03:38:25.325Z,100579.87
2019-05-19T03:40:57.094Z,100580.60
2019-05-19T03:43:28.752Z,100584.05
2019-05-19T03:46:00.492Z,100585.64
2019-05-19T03:48:32.480Z,100581.11
2019-05-19T03:51:03.914Z,100579.27
2019-05-19T03:53:35.762Z,100584.11
2019-05-19T03:56:07.158Z,100575.31
2019-05-19T03:58:38.772Z,100577.13
2019-05-19T04:01:10.369Z,100581.98
2019-05-19T04:03:43.111Z,100585.51
2019-05-19T04:06:14.460Z,100588.54
2019-05-19T04:08:46.012Z,100589.12
2019-05-19T04:11:17.587Z,100583.33
2019-05-19T04:13:48.835Z,100594.80
2019-05-19T04:16:20.553Z,100589.51
2019-05-19T04:18:52.134Z,100594.52
2019-05-19T04:21:23.309Z,100601.59
2019-05-19T04:23:54.897Z,100606.06
2019-05-19T04:26:26.587Z,100601.36
2019-05-19T04:28:57.976Z,100598.22
2019-05-19T04:31:29.795Z,100603.46
2019-05-19T04:34:01.390Z,100610.05
2019-05-19T04:36:32.952Z,100612.52
2019-05-19T04:39:06.143Z,100616.30
2019-05-19T04:41:40.217Z,100609.85
2019-05-19T04:44:10.948Z,100611.53
2019-05-19T04:46:42.427Z,100621.01
2019-05-19T04:49:14.053Z,100618.23
2019-05-19T04:51:45.660Z,100617.94
2019-05-19T04:54:18.626Z,100620.73
2019-05-19T04:56:50.003Z,100611.80
2019-05-19T04:59:21.405Z,100616.53
2019-05-19T05:01:56.092Z,100618.52
2019-05-19T05:04:29.700Z,100625.12
2019-05-19T05:07:01.428Z,100626.41
2019-05-19T05:09:32.986Z,100623.47
2019-05-19T05:12:04.844Z,100618.00
2019-05-19T05:14:36.462Z,100626.66
2019-05-19T05:17:07.966Z,100625.73
2019-05-19T05:19:39.569Z,100621.98
2019-05-19T05:22:21.630Z,100619.98
2019-05-19T05:24:44.420Z,100621.95
2019-05-19T05:27:19.475Z,100620.47
2019-05-19T05:29:50.851Z,100625.98
2019-05-19T05:32:22.292Z,100621.08
2019-05-19T05:34:53.744Z,100628.58
2019-05-19T05:37:25.470Z,100632.09
2019-05-19T05:39:57.744Z,100638.85
2019-05-19T05:42:32.000Z,100643.45
2019-05-19T05:45:05.247Z,100638.05
2019-05-19T05:47:36.706Z,100634.34
2019-05-19T05:50:08.749Z,100636.72
2019-05-19T05:52:40.011Z,100641.95
2019-05-19T05:55:11.783Z,100637.53
2019-05-19T05:57:43.177Z,100637.52
2019-05-19T06:00:16.000Z,100641.97
2019-05-19T06:02:47.603Z,100641.33
2019-05-19T06:05:20.190Z,100640.13
2019-05-19T06:07:51.825Z,100640.97
2019-05-19T06:10:23.179Z,100639.31
2019-05-19T06:12:54.919Z,100634.66
2019-05-19T06:15:29.432Z,100639.20
2019-05-19T06:18:01.195Z,100630.21
2019-05-19T06:20:32.560Z,100632.43
2019-05-19T06:23:04.361Z,100628.50
2019-05-19T06:25:35.924Z,100628.03
2019-05-19T06:28:07.726Z,100627.64
2019-05-19T06:30:39.166Z,100630.39
2019-05-19T06:33:10.868Z,100632.34
2019-05-19T06:35:42.806Z,100636.67
2019-05-19T06:38:14.992Z,100624.03
2019-05-19T06:40:46.537Z,100628.89
2019-05-19T06:43:18.324Z,100632.64
2019-05-19T06:45:54.862Z,100636.66
2019-05-19T06:48:26.387Z,100629.88
2019-05-19T06:50:58.066Z,100636.50
2019-05-19T06:53:29.602Z,100631.28
2019-05-19T06:56:03.020Z,100637.23
2019-05-19T06:58:34.751Z,100651.09
2019-05-19T07:01:06.432Z,100640.52
2019-05-19T07:03:38.232Z,100645.09
2019-05-19T07:06:10.622Z,100654.35
2019-05-19T07:08:42.126Z,100639.88
2019-05-19T07:11:13.510Z,100639.84
2019-05-19T07:13:45.177Z,100643.83
2019-05-19T07:16:16.789Z,100645.25
2019-05-19T07:18:48.457Z,100637.12
2019-05-19T07:21:19.912Z,100631.08
2019-05-19T07:23:51.345Z,100637.44
2019-05-19T07:26:22.940Z,100637.57
2019-05-19T07:28:54.549Z,100632.02
2019-05-19T07:31:26.110Z,100638.53
2019-05-19T07:33:57.694Z,100633.66
2019-05-19T07:36:30.138Z,100635.73
2019-05-19T07:39:01.586Z,100636.33
2019-05-19T07:41:33.959Z,100635.50
2019-05-19T07:44:06.858Z,100632.91
2019-05-19T07:46:38.955Z,100637.89
2019-05-19T07:49:10.674Z,100650.70
2019-05-19T07:51:42.126Z,100644.69
2019-05-19T07:54:14.597Z,100642.52
2019-05-19T07:56:46.048Z,100653.17
2019-05-19T07:59:17.521Z,100650.52
2019-05-19T08:01:49.106Z,100649.70
2019-05-19T08:04:20.926Z,100656.53
2019-05-19T08:06:53.397Z,100657.33
2019-05-19T08:09:24.947Z,100656.72
2019-05-19T08:11:56.524Z,100651.99
2019-05-19T08:14:27.938Z,100655.13
2019-05-19T08:16:59.415Z,100651.05
2019-05-19T08:19:30.895Z,100659.01
2019-05-19T08:22:04.003Z,100669.91
2019-05-19T08:24:36.271Z,100655.01
2019-05-19T08:27:09.533Z,100651.89
2019-05-19T08:29:41.249Z,100652.28
2019-05-19T08:32:13.352Z,100657.11
2019-05-19T08:34:45.051Z,100656.02
2019-05-19T08:37:17.687Z,100656.66
2019-05-19T08:39:51.582Z,100657.56
2019-05-19T08:42:23.440Z,100659.44
2019-05-19T08:44:56.984Z,100660.92
2019-05-19T08:47:28.359Z,100659.89
2019-05-19T08:49:59.898Z,100648.33
2019-05-19T08:52:31.482Z,100649.44
2019-05-19T08:55:02.968Z,100651.91
2019-05-19T08:57:34.901Z,100649.94
2019-05-19T09:00:08.432Z,100638.17
2019-05-19T09:02:39.869Z,100630.70
2019-05-19T09:05:13.696Z,100637.78
2019-05-19T09:07:48.103Z,100638.77
2019-05-19T09:10:22.346Z,100644.75
2019-05-19T09:12:54.258Z,100643.62
2019-05-19T09:15:25.630Z,100637.41
2019-05-19T09:17:57.202Z,100639.28
2019-05-19T09:20:29.821Z,100636.61
2019-05-19T09:23:01.886Z,100631.06
2019-05-19T09:25:33.277Z,100631.00
2019-05-19T09:28:07.821Z,100637.02
2019-05-19T09:30:40.194Z,100633.18
2019-05-19T09:33:13.287Z,100631.01
2019-05-19T09:35:46.543Z,100624.13
2019-05-19T09:38:18.045Z,100628.80
2019-05-19T09:40:50.465Z,100626.22
2019-05-19T09:43:21.809Z,100627.56
2019-05-19T09:45:53.792Z,100632.93
2019-05-19T09:48:25.357Z,100630.25
2019-05-19T09:50:56.955Z,100627.88
2019-05-19T09:53:30.528Z,100631.81
2019-05-19T09:56:05.682Z,100623.75
2019-05-19T09:58:37.784Z,100631.03
2019-05-19T10:01:09.811Z,100628.81
2019-05-19T10:03:41.362Z,100619.99
2019-05-19T10:06:12.912Z,100627.81
2019-05-19T10:08:50.197Z,100628.78
2019-05-19T10:11:49.524Z,100620.14
2019-05-19T10:14:21.064Z,100622.97
2019-05-19T10:16:53.964Z,100634.44
2019-05-19T10:19:25.681Z,100632.14
2019-05-19T10:21:58.193Z,100626.32
2019-05-19T10:24:30.167Z,100626.13
2019-05-19T10:27:01.605Z,100626.89
2019-05-19T10:29:33.765Z,100619.99
2019-05-19T10:32:05.244Z,100618.90
2019-05-19T10:34:37.611Z,100622.66
2019-05-19T10:37:09.118Z,100612.07
2019-05-19T10:39:40.396Z,100607.10
2019-05-19T10:42:12.775Z,100615.88
2019-05-19T10:44:44.310Z,100612.33
2019-05-19T10:47:15.946Z,100613.77
2019-05-19T10:49:47.435Z,100618.29
2019-05-19T10:52:19.042Z,100610.67
2019-05-19T10:54:50.749Z,100604.72
2019-05-19T10:57:22.454Z,100605.38
2019-05-19T10:59:54.167Z,100607.54
2019-05-19T11:02:25.827Z,100613.56
2019-05-19T11:04:57.465Z,100604.25
2019-05-19T11:07:30.018Z,100610.20
2019-05-19T11:10:01.792Z,100603.98
2019-05-19T11:12:34.483Z,100605.58
2019-05-19T11:15:08.426Z,100602.09
2019-05-19T11:17:39.947Z,100597.00
2019-05-19T11:20:11.720Z,100615.48
2019-05-19T11:22:43.065Z,100608.77
2019-05-19T11:25:14.554Z,100612.34
2019-05-19T11:27:46.299Z,100608.33
2019-05-19T11:30:18.062Z,100607.69
2019-05-19T11:32:49.810Z,100606.37
2019-05-19T11:35:21.291Z,100615.66
2019-05-19T11:37:52.940Z,100621.05
2019-05-19T11:40:25.594Z,100618.61
2019-05-19T11:42:57.313Z,100618.75
2019-05-19T11:45:28.917Z,100616.91
2019-05-19T11:48:01.032Z,100618.19
2019-05-19T11:50:34.061Z,100614.39
2019-05-19T11:53:05.272Z,100618.97
2019-05-19T11:55:36.879Z,100613.94
2019-05-19T11:58:09.057Z,100621.02
2019-05-19T12:00:40.594Z,100620.70
2019-05-19T12:03:11.881Z,100621.82
2019-05-19T12:05:43.290Z,100624.55
2019-05-19T12:08:14.863Z,100624.40
2019-05-19T12:10:50.066Z,100616.91
2019-05-19T12:13:22.328Z,100617.83
2019-05-19T12:15:53.912Z,100621.70
2019-05-19T12:18:25.373Z,100619.94
2019-05-19T12:20:57.354Z,100621.92
2019-05-19T12:23:28.994Z,100623.48
2019-05-19T12:26:00.390Z,100609.43
2019-05-19T12:28:31.886Z,100613.30
2019-05-19T12:31:03.269Z,100616.17
2019-05-19T12:33:35.211Z,100613.38
2019-05-19T12:36:06.866Z,100619.45
2019-05-19T12:38:39.228Z,100616.67
2019-05-19T12:41:13.260Z,100617.42
2019-05-19T12:43:44.558Z,100618.51
2019-05-19T12:46:16.910Z,100616.45
2019-05-19T12:48:48.802Z,100618.19
2019-05-19T12:51:20.407Z,100604.55
2019-05-19T12:53:51.782Z,100619.28
2019-05-19T12:56:37.152Z,100614.81
2019-05-19T12:58:57.504Z,100611.52
2019-05-19T13:01:29.383Z,100612.39
2019-05-19T13:04:00.785Z,100614.34
2019-05-19T13:06:32.267Z,100608.13
2019-05-19T13:09:04.879Z,100607.63
2019-05-19T13:11:37.373Z,100614.26
2019-05-19T13:14:09.004Z,100604.36
2019-05-19T13:16:42.278Z,100599.70
2019-05-19T13:19:13.764Z,100604.20
2019-05-19T13:21:45.427Z,100609.70
2019-05-19T13:24:16.774Z,100605.77
2019-05-19T13:26:56.595Z,100605.44
2019-05-19T13:29:21.280Z,100614.27
2019-05-19T13:31:52.860Z,100600.34
2019-05-19T13:34:24.445Z,100596.89
2019-05-19T13:36:55.894Z,100605.98
2019-05-19T13:39:27.705Z,100602.35
2019-05-19T13:41:59.394Z,100599.13
2019-05-19T13:44:30.798Z,100608.03
2019-05-19T13:47:02.398Z,100607.67
2019-05-19T13:49:33.971Z,100602.20
2019-05-19T13:52:05.386Z,100599.64
2019-05-19T13:54:36.735Z,100605.99
2019-05-19T13:57:13.507Z,100600.64
2019-05-19T13:59:44.932Z,100601.38
2019-05-19T14:02:16.510Z,100604.17
2019-05-19T14:04:47.943Z,100608.52
2019-05-19T14:07:20.541Z,100605.81
2019-05-19T14:09:52.356Z,100613.89
2019-05-19T14:12:24.652Z,100609.27
2019-05-19T14:14:56.186Z,100613.41
2019-05-19T14:17:27.593Z,100613.48
2019-05-19T14:19:59.148Z,100617.45
2019-05-19T14:22:30.654Z,100617.31
2019-05-19T14:25:02.316Z,100622.34
2019-05-19T14:27:35.092Z,100615.29
2019-05-19T14:30:10.475Z,100619.63
2019-05-19T14:32:42.992Z,100624.98
2019-05-19T14:35:15.024Z,100613.25
2019-05-19T14:37:47.278Z,100612.19
2019-05-19T14:40:19.560Z,100621.53
2019-05-19T14:43:01.862Z,100615.72
2019-05-19T14:45:36.580Z,100614.08
2019-05-19T14:48:08.240Z,100625.64
2019-05-19T14:50:39.682Z,100621.31
2019-05-19T14:53:10.906Z,100617.03
2019-05-19T14:55:42.557Z,100617.54
2019-05-19T14:58:14.201Z,100583.03
2019-05-19T15:00:46.562Z,100616.31
2019-05-19T15:03:18.079Z,100616.25
2019-05-19T15:05:49.661Z,100612.03
2019-05-19T15:08:24.886Z,100610.75
2019-05-19T15:10:56.508Z,100615.33
2019-05-19T15:13:28.938Z,100616.81
2019-05-19T15:16:00.692Z,100603.27
2019-05-19T15:18:31.974Z,100603.27
2019-05-19T15:21:03.885Z,100629.49
2019-05-19T15:23:35.677Z,100597.22
2019-05-19T15:26:07.810Z,100613.00
2019-05-19T15:28:40.494Z,100605.73
2019-05-19T15:31:11.906Z,100603.41
2019-05-19T15:33:43.805Z,100602.28
2019-05-19T15:36:15.867Z,100609.16
2019-05-19T15:38:47.522Z,100614.33
2019-05-19T15:41:19.201Z,100613.73
2019-05-19T15:43:50.741Z,100612.64
2019-05-19T15:46:22.493Z,100615.31
2019-05-19T15:48:53.875Z,100615.15
2019-05-19T15:51:28.996Z,100616.45
2019-05-19T15:54:01.540Z,100620.72
2019-05-19T15:56:32.986Z,100613.30
2019-05-19T15:59:04.584Z,100620.45
2019-05-19T16:01:36.247Z,100627.18
2019-05-19T16:04:07.893Z,100622.40
2019-05-19T16:06:39.495Z,100623.92
2019-05-19T16:09:11.337Z,100624.04
2019-05-19T16:11:42.753Z,100637.18
2019-05-19T16:14:15.532Z,100628.64
2019-05-19T16:16:47.113Z,100629.36
2019-05-19T16:19:19.782Z,100627.77
2019-05-19T16:21:51.581Z,100631.70
2019-05-19T16:24:23.013Z,100628.70
2019-05-19T16:26:54.559Z,100627.14
2019-05-19T16:29:25.999Z,100634.38
2019-05-19T16:31:57.516Z,100644.37
2019-05-19T16:34:29.098Z,100641.22
2019-05-19T16:37:00.651Z,100643.34
2019-05-19T16:39:31.990Z,100655.37
2019-05-19T16:42:03.686Z,100643.39
2019-05-19T16:44:35.831Z,100654.09
2019-05-19T16:47:07.255Z,100650.63
2019-05-19T16:49:38.869Z,100650.54
2019-05-19T16:52:10.535Z,100653.75
2019-05-19T16:54:43.828Z,100639.78
2019-05-19T16:57:15.328Z,100651.86
2019-05-19T16:59:48.560Z,100646.97
2019-05-19T17:02:20.335Z,100652.69
2019-05-19T17:04:51.785Z,100658.02
2019-05-19T17:07:23.296Z,100656.20
2019-05-19T17:09:55.065Z,100651.59
2019-05-19T17:12:28.713Z,100648.92
2019-05-19T17:15:02.231Z,100657.26
2019-05-19T17:17:35.457Z,100653.95
2019-05-19T17:20:09.037Z,100650.85
2019-05-19T17:22:40.408Z,100657.36
2019-05-19T17:25:12.167Z,100661.97
2019-05-19T17:27:43.430Z,100659.86
2019-05-19T17:30:15.754Z,100663.84
2019-05-19T17:32:47.157Z,100666.56
2019-05-19T17:35:19.090Z,100668.27
2019-05-19T17:37:50.477Z,100665.38
2019-05-19T17:40:22.294Z,100675.41
2019-05-19T17:42:54.093Z,100673.45
2019-05-19T17:45:25.628Z,100671.13
2019-05-19T17:48:09.256Z,100680.66
2019-05-19T17:50:36.423Z,100684.16
2019-05-19T17:53:07.865Z,100678.93
2019-05-19T17:55:41.058Z,100675.23
2019-05-19T17:58:12.714Z,100679.78
2019-05-19T18:00:44.650Z,100686.34
2019-05-19T18:03:16.184Z,100687.44
2019-05-19T18:05:49.024Z,100680.47
2019-05-19T18:08:20.535Z,100689.91
2019-05-19T18:10:52.540Z,100687.70
2019-05-19T18:13:24.379Z,100684.70
2019-05-19T18:15:56.737Z,100683.16
2019-05-19T18:18:28.261Z,100692.80
2019-05-19T18:20:59.812Z,100683.16
2019-05-19T18:23:31.476Z,100689.23
2019-05-19T18:26:02.927Z,100697.52
2019-05-19T18:28:34.543Z,100703.67
2019-05-19T18:31:06.586Z,100697.21
2019-05-19T18:33:38.048Z,100697.52
2019-05-19T18:36:09.908Z,100701.73
2019-05-19T18:38:41.392Z,100710.80
2019-05-19T18:41:13.692Z,100699.23
2019-05-19T18:43:46.303Z,100705.56
2019-05-19T18:46:17.997Z,100713.78
2019-05-19T18:48:49.455Z,100711.53
2019-05-19T18:51:20.932Z,100715.00
2019-05-19T18:53:52.871Z,100715.89
2019-05-19T18:56:26.928Z,100718.37
2019-05-19T18:58:58.398Z,100723.23
2019-05-19T19:01:31.717Z,100733.91
2019-05-19T19:04:03.438Z,100731.80
2019-05-19T19:06:37.793Z,100738.14
2019-05-19T19:09:09.458Z,100733.86
2019-05-19T19:11:41.218Z,100731.73
2019-05-19T19:14:12.723Z,100737.87
2019-05-19T19:16:45.301Z,100732.69
2019-05-19T19:19:16.936Z,100733.13
2019-05-19T19:21:48.663Z,100739.82
2019-05-19T19:24:20.257Z,100741.95
2019-05-19T19:26:51.779Z,100741.97
2019-05-19T19:29:25.977Z,100743.75
2019-05-19T19:31:57.851Z,100746.04
2019-05-19T19:34:29.836Z,100748.47
2019-05-19T19:37:01.631Z,100752.48
2019-05-19T19:39:33.330Z,100755.49
2019-05-19T19:42:05.400Z,100757.27
2019-05-19T19:44:38.395Z,100759.27
2019-05-19T19:47:09.638Z,100756.25
2019-05-19T19:49:41.370Z,100759.19
2019-05-19T19:52:13.172Z,100754.19
2019-05-19T19:54:45.079Z,100755.31
2019-05-19T19:57:16.954Z,100757.59
2019-05-19T19:59:48.364Z,100754.70
2019-05-19T20:02:20.105Z,100753.95
2019-05-19T20:04:51.844Z,100757.93
2019-05-19T20:07:23.644Z,100758.77
2019-05-19T20:09:55.318Z,100760.33
2019-05-19T20:12:27.190Z,100757.94
2019-05-19T20:14:59.711Z,100760.56
2019-05-19T20:17:34.676Z,100765.25
2019-05-19T20:20:06.780Z,100776.18
2019-05-19T20:22:39.287Z,100776.18
2019-05-19T20:25:11.045Z,100772.66
2019-05-19T20:27:42.717Z,100774.84
2019-05-19T20:30:14.518Z,100766.80
2019-05-19T20:32:46.763Z,100771.28
2019-05-19T20:35:18.537Z,100770.23
2019-05-19T20:37:51.575Z,100772.91
2019-05-19T20:40:23.488Z,100772.06
2019-05-19T20:42:56.964Z,100778.86
2019-05-19T20:45:29.009Z,100774.55
2019-05-19T20:48:00.767Z,100773.84
2019-05-19T20:50:32.525Z,100776.77
2019-05-19T20:53:04.499Z,100782.63
2019-05-19T20:55:38.773Z,100786.29
2019-05-19T20:58:10.488Z,100788.05
2019-05-19T21:00:50.488Z,100794.72
2019-05-19T21:03:16.235Z,100802.73
2019-05-19T21:05:47.793Z,100813.95
2019-05-19T21:08:19.576Z,100806.34
2019-05-19T21:10:51.170Z,100809.35
2019-05-19T21:13:22.890Z,100812.92
2019-05-19T21:15:55.242Z,100812.38
2019-05-19T21:18:27.859Z,100812.89
2019-05-19T21:20:59.261Z,100820.47
2019-05-19T21:23:31.020Z,100824.61
2019-05-19T21:26:02.600Z,100817.17
2019-05-19T21:28:34.335Z,100817.47
2019-05-19T21:31:06.493Z,100816.73
2019-05-19T21:33:38.264Z,100822.94
2019-05-19T21:36:09.823Z,100818.58
2019-05-19T21:38:41.397Z,100824.93
2019-05-19T21:41:13.106Z,100825.16
2019-05-19T21:43:44.793Z,100827.94
2019-05-19T21:46:16.343Z,100835.31
2019-05-19T21:48:48.118Z,100836.28
2019-05-19T21:51:19.835Z,100841.81
2019-05-19T21:53:51.620Z,100841.58
2019-05-19T21:56:23.235Z,100844.80
2019-05-19T21:58:55.043Z,100842.58
2019-05-19T22:01:26.510Z,100855.00
2019-05-19T22:03:57.950Z,100855.91
2019-05-19T22:06:31.236Z,100854.28
2019-05-19T22:09:04.331Z,100856.36
2019-05-19T22:11:35.989Z,100858.42
2019-05-19T22:14:07.303Z,100860.95
2019-05-19T22:16:39.042Z,100856.62
2019-05-19T22:19:11.678Z,100852.65
2019-05-19T22:21:43.232Z,100855.27
2019-05-19T22:24:14.746Z,100856.70
2019-05-19T22:26:46.652Z,100859.92
2019-05-19T22:29:18.347Z,100855.74
2019-05-19T22:31:50.212Z,100861.54
2019-05-19T22:34:21.800Z,100858.23
2019-05-19T22:36:53.180Z,100862.17
2019-05-19T22:39:24.863Z,100861.59
2019-05-19T22:41:56.703Z,100866.80
2019-05-19T22:44:28.264Z,100823.02
2019-05-19T22:46:59.869Z,100859.80
2019-05-19T22:49:31.282Z,100867.70
2019-05-19T22:52:02.646Z,100871.69
2019-05-19T22:54:34.149Z,100881.86
2019-05-19T22:57:05.809Z,100873.97
2019-05-19T22:59:37.104Z,100881.44
2019-05-19T23:02:09.445Z,100880.72
2019-05-19T23:04:40.828Z,100876.22
2019-05-19T23:07:12.546Z,100878.62
2019-05-19T23:09:44.087Z,100877.57
2019-05-19T23:12:15.643Z,100878.48
2019-05-19T23:14:47.032Z,100877.89
2019-05-19T23:17:18.419Z,100881.65
2019-05-19T23:19:50.885Z,100883.45
2019-05-19T23:22:22.488Z,100884.80
2019-05-19T23:24:54.036Z,100887.50
2019-05-19T23:27:25.792Z,100885.98
2019-05-19T23:29:57.247Z,100885.11
2019-05-19T23:32:29.212Z,100881.64
2019-05-19T23:35:00.863Z,100822.84
2019-05-19T23:37:32.398Z,100883.80
2019-05-19T23:40:08.275Z,100889.95
2019-05-19T23:42:39.652Z,100884.14
2019-05-19T23:45:11.120Z,100889.41
2019-05-19T23:47:42.397Z,100892.23
2019-05-19T23:50:14.304Z,100891.22
2019-05-19T23:52:45.741Z,100893.69
2019-05-19T23:55:17.437Z,100892.38
2019-05-19T23:57:49.167Z,100894.66
